Time;durP1;ratioP1;P1;durP2;ratioP2;P2;SDS_P1;SDS_P2;PMS_P1;PMS_P2;Temp;Humidity;BMP_temperature;BMP_pressure;BME280_temperature;BME280_humidity;BME280_pressure;Samples;Min_cycle;Max_cycle;Signal;HPM_P1;HPM_P2
2023/03/24 00:01:06;;;;;;;4.10;2.33;;;10.80;99.90;;;;;;5106869;28;20443;-80
2023/03/24 00:03:35;;;;;;;4.43;4.00;;;10.80;99.90;;;;;;5093056;28;20483;-78
2023/03/24 00:06:06;;;;;;;3.33;2.70;;;10.70;99.90;;;;;;5102413;28;20491;-77
2023/03/24 00:08:35;;;;;;;3.60;2.30;;;10.60;99.90;;;;;;5100133;28;20452;-78
2023/03/24 00:11:05;;;;;;;5.23;3.17;;;10.60;99.90;;;;;;5105001;28;20439;-79
2023/03/24 00:13:36;;;;;;;2.43;2.23;;;10.60;99.90;;;;;;5107172;28;20494;-77
2023/03/24 00:16:04;;;;;;;3.00;2.50;;;10.60;99.90;;;;;;5109450;28;20533;-78
2023/03/24 00:18:31;;;;;;;2.70;2.50;;;10.70;99.90;;;;;;5102468;28;20461;-77
2023/03/24 00:20:59;;;;;;;2.80;2.20;;;10.80;99.90;;;;;;5106460;28;20927;-80
2023/03/24 00:23:31;;;;;;;2.53;2.20;;;10.90;99.90;;;;;;5107989;28;20466;-75
2023/03/24 00:26:03;;;;;;;6.03;2.30;;;10.80;99.90;;;;;;5105824;28;20493;-77
2023/03/24 00:28:32;;;;;;;5.53;2.80;;;10.90;99.90;;;;;;5107077;28;20457;-78
2023/03/24 00:31:00;;;;;;;3.10;2.90;;;10.80;99.90;;;;;;5103381;28;20459;-78
2023/03/24 00:33:30;;;;;;;2.53;2.37;;;10.70;99.90;;;;;;5103100;28;20459;-77
2023/03/24 00:35:57;;;;;;;4.33;2.60;;;10.50;99.90;;;;;;5096653;28;20817;-80
2023/03/24 00:38:25;;;;;;;8.33;3.10;;;10.50;99.90;;;;;;5108829;27;20443;-77
2023/03/24 00:40:54;;;;;;;2.97;2.77;;;10.50;99.90;;;;;;5104325;28;20962;-77
2023/03/24 00:43:21;;;;;;;5.30;2.50;;;10.70;99.90;;;;;;5095262;28;20459;-77
2023/03/24 00:45:48;;;;;;;3.20;2.27;;;10.80;99.90;;;;;;5106886;28;20447;-80
2023/03/24 00:48:19;;;;;;;4.13;2.83;;;10.70;99.90;;;;;;5104559;28;20451;-77
2023/03/24 00:50:48;;;;;;;2.47;2.27;;;10.60;99.90;;;;;;5107693;28;20449;-78
2023/03/24 00:53:15;;;;;;;2.93;2.40;;;10.50;99.90;;;;;;5106929;28;20457;-77
2023/03/24 00:55:45;;;;;;;2.20;1.60;;;10.50;99.90;;;;;;5102455;28;20998;-77
2023/03/24 00:58:16;;;;;;;3.73;2.50;;;10.60;99.90;;;;;;5095725;28;20862;-77
2023/03/24 01:00:44;;;;;;;2.50;2.30;;;10.70;99.90;;;;;;5107374;28;20454;-77
2023/03/24 01:03:11;;;;;;;2.33;2.10;;;10.70;99.90;;;;;;5099715;28;20464;-77
2023/03/24 01:05:38;;;;;;;3.83;2.47;;;10.70;99.90;;;;;;5104692;28;20486;-77
2023/03/24 01:08:06;;;;;;;4.93;2.87;;;10.70;99.90;;;;;;5104492;28;20980;-77
2023/03/24 01:10:41;;;;;;;3.03;2.50;;;10.50;99.90;;;;;;5102491;28;20459;-78
2023/03/24 01:13:09;;;;;;;5.73;2.43;;;10.50;99.90;;;;;;5105659;28;20442;-77
2023/03/24 01:15:37;;;;;;;2.60;2.30;;;10.50;99.90;;;;;;5101314;28;20486;-77
2023/03/24 01:18:04;;;;;;;3.77;2.23;;;10.50;99.90;;;;;;5104869;28;20447;-79
2023/03/24 01:20:32;;;;;;;5.00;2.40;;;10.60;99.90;;;;;;5105503;28;20451;-77
2023/03/24 01:22:59;;;;;;;2.63;2.40;;;10.50;99.90;;;;;;5098081;28;20451;-77
2023/03/24 01:25:28;;;;;;;6.53;3.13;;;10.60;99.90;;;;;;5102164;28;20482;-77
2023/03/24 01:27:55;;;;;;;2.70;2.27;;;10.50;99.90;;;;;;5106916;28;20451;-77
2023/03/24 01:30:25;;;;;;;2.63;1.83;;;10.40;99.90;;;;;;5105838;28;20454;-80
2023/03/24 01:32:53;;;;;;;3.00;2.50;;;10.30;99.90;;;;;;5101070;28;20508;-77
2023/03/24 01:35:21;;;;;;;2.73;2.53;;;10.30;99.90;;;;;;5106431;28;20470;-77
2023/03/24 01:37:48;;;;;;;6.93;3.53;;;10.30;99.90;;;;;;5095788;28;20439;-76
2023/03/24 01:40:19;;;;;;;2.57;2.37;;;10.30;99.90;;;;;;5090286;28;20494;-77
2023/03/24 01:42:46;;;;;;;5.07;3.40;;;10.20;99.90;;;;;;5104323;28;20819;-77
2023/03/24 01:45:49;;;;;;;11.13;3.90;;;10.30;99.90;;;;;;5098191;28;20487;-78
2023/03/24 01:48:20;;;;;;;3.90;3.10;;;10.20;99.90;;;;;;5091250;28;20454;-77
2023/03/24 01:50:52;;;;;;;5.47;3.63;;;10.20;99.90;;;;;;5094394;28;20944;-77
2023/03/24 01:53:20;;;;;;;4.73;4.23;;;10.30;99.90;;;;;;5102357;28;20474;-78
2023/03/24 01:55:48;;;;;;;3.23;2.93;;;10.30;99.90;;;;;;5106206;28;20466;-77
2023/03/24 01:58:17;;;;;;;3.87;3.23;;;10.30;99.90;;;;;;5094574;28;20447;-77
2023/03/24 02:00:44;;;;;;;3.53;3.03;;;10.30;99.90;;;;;;5107091;28;20457;-77
2023/03/24 02:03:17;;;;;;;3.60;2.67;;;10.20;99.90;;;;;;5101878;28;20463;-79
2023/03/24 02:05:47;;;;;;;7.73;3.30;;;10.30;99.90;;;;;;5099143;28;20474;-77
2023/03/24 02:08:20;;;;;;;4.87;3.50;;;10.30;99.90;;;;;;5102156;28;20450;-77
2023/03/24 02:10:48;;;;;;;3.80;3.50;;;10.30;99.90;;;;;;5095767;28;20462;-79
2023/03/24 02:13:15;;;;;;;3.63;2.97;;;10.40;99.90;;;;;;5102210;28;20457;-78
2023/03/24 02:15:49;;;;;;;7.80;3.40;;;10.50;99.90;;;;;;5100424;28;20978;-79
2023/03/24 02:18:26;;;;;;;2.80;2.60;;;10.50;99.90;;;;;;5094724;28;20446;-77
2023/03/24 02:21:21;;;;;;;5.33;2.93;;;10.40;99.90;;;;;;5097483;28;21120;-76
2023/03/24 02:24:21;;;;;;;4.03;2.10;;;10.30;99.90;;;;;;5096577;28;20499;-80
2023/03/24 02:26:56;;;;;;;4.00;3.00;;;10.40;99.90;;;;;;5088085;28;20485;-77
2023/03/24 02:30:04;;;;;;;3.97;3.67;;;10.40;99.90;;;;;;5101990;28;20462;-76
2023/03/24 02:33:16;;;;;;;3.23;2.70;;;10.40;99.90;;;;;;5057419;28;20468;-77
2023/03/24 02:36:20;;;;;;;2.57;2.37;;;10.30;99.90;;;;;;5094787;28;20909;-75
2023/03/24 02:39:27;;;;;;;3.50;3.17;;;10.30;99.90;;;;;;5095214;28;20798;-79
2023/03/24 02:42:03;;;;;;;4.40;3.40;;;10.20;99.90;;;;;;5097791;28;20449;-78
2023/03/24 02:44:37;;;;;;;5.40;3.80;;;10.20;99.90;;;;;;5103013;28;20489;-77
2023/03/24 02:47:10;;;;;;;3.77;2.90;;;10.20;99.90;;;;;;5109300;28;20863;-76
2023/03/24 02:49:46;;;;;;;4.30;3.00;;;10.10;99.90;;;;;;5108388;28;20449;-78
2023/03/24 02:52:19;;;;;;;3.40;2.60;;;10.10;99.90;;;;;;5105903;28;20438;-77
2023/03/24 02:54:50;;;;;;;3.00;2.73;;;10.10;99.90;;;;;;5083962;28;20886;-76
2023/03/24 02:57:23;;;;;;;2.50;2.30;;;10.20;99.90;;;;;;5107433;28;20450;-76
2023/03/24 02:59:54;;;;;;;6.47;3.33;;;10.20;99.90;;;;;;5101630;28;20463;-79
2023/03/24 03:02:26;;;;;;;4.03;3.73;;;10.30;99.90;;;;;;5105131;28;20438;-76
2023/03/24 03:04:57;;;;;;;2.83;2.57;;;10.30;99.90;;;;;;5098794;28;20490;-76
2023/03/24 03:07:32;;;;;;;3.00;2.70;;;10.30;99.90;;;;;;5096648;28;20470;-81
2023/03/24 03:10:04;;;;;;;2.70;2.50;;;10.30;99.90;;;;;;5098658;28;20457;-81
2023/03/24 03:12:36;;;;;;;4.87;3.00;;;10.20;99.90;;;;;;5097286;28;20463;-77
2023/03/24 03:15:07;;;;;;;2.63;2.50;;;10.10;99.90;;;;;;5107894;28;20461;-78
2023/03/24 03:17:38;;;;;;;5.07;2.80;;;10.10;99.90;;;;;;5095560;28;20533;-80
2023/03/24 03:20:10;;;;;;;3.30;3.10;;;10.20;99.90;;;;;;5105071;28;20462;-78
2023/03/24 03:22:42;;;;;;;6.03;2.90;;;10.20;99.90;;;;;;5096345;28;21303;-78
2023/03/24 03:25:12;;;;;;;8.23;3.00;;;10.20;99.90;;;;;;5104116;28;20490;-78
2023/03/24 03:27:42;;;;;;;5.43;3.57;;;10.10;99.90;;;;;;5102857;28;20505;-78
2023/03/24 03:30:17;;;;;;;4.17;2.70;;;10.10;99.90;;;;;;5101464;28;20902;-79
2023/03/24 03:32:53;;;;;;;3.50;2.60;;;10.20;99.90;;;;;;5104576;28;20545;-76
2023/03/24 03:35:25;;;;;;;2.40;2.00;;;10.20;99.90;;;;;;5103124;28;20481;-77
2023/03/24 03:37:58;;;;;;;2.80;2.57;;;10.20;99.90;;;;;;5095005;28;20462;-75
2023/03/24 03:40:32;;;;;;;4.13;3.60;;;10.10;99.90;;;;;;5103820;28;20543;-77
2023/03/24 03:43:00;;;;;;;8.53;3.20;;;10.10;99.90;;;;;;5105869;28;20471;-77
2023/03/24 03:45:27;;;;;;;3.83;2.63;;;10.00;99.90;;;;;;5102470;28;20483;-77
2023/03/24 03:47:55;;;;;;;3.10;2.90;;;10.00;99.90;;;;;;5096845;28;20454;-77
2023/03/24 03:50:22;;;;;;;3.23;3.00;;;10.00;99.90;;;;;;5107630;28;20458;-77
2023/03/24 03:52:51;;;;;;;6.33;3.93;;;10.00;99.90;;;;;;5101487;28;20494;-77
2023/03/24 03:55:18;;;;;;;6.00;3.27;;;10.00;99.90;;;;;;5095479;28;20466;-78
2023/03/24 03:57:45;;;;;;;5.07;3.43;;;10.10;99.90;;;;;;5094096;28;20887;-77
2023/03/24 04:00:18;;;;;;;4.57;4.17;;;10.10;99.90;;;;;;5099767;28;20451;-77
2023/03/24 04:03:07;;;;;;;2.63;2.43;;;10.00;99.90;;;;;;5103289;28;20471;-77
2023/03/24 04:05:36;;;;;;;4.93;3.67;;;10.00;99.90;;;;;;5098409;28;20482;-77
2023/03/24 04:08:18;;;;;;;3.53;3.23;;;10.00;99.90;;;;;;5107282;28;20977;-77
2023/03/24 04:11:21;;;;;;;4.30;3.90;;;10.00;99.90;;;;;;5108693;28;20485;-77
2023/03/24 04:13:58;;;;;;;7.93;4.50;;;10.00;99.90;;;;;;5105752;28;20442;-77
2023/03/24 04:16:41;;;;;;;4.60;4.20;;;9.90;99.90;;;;;;5096558;28;20467;-77
2023/03/24 04:19:19;;;;;;;8.63;4.83;;;10.00;99.90;;;;;;5105175;28;20462;-78
2023/03/24 04:21:57;;;;;;;4.90;4.43;;;10.00;99.90;;;;;;5106498;28;20462;-77
2023/03/24 04:24:35;;;;;;;5.90;4.83;;;10.10;99.90;;;;;;5106515;28;20442;-77
2023/03/24 04:27:10;;;;;;;8.80;4.97;;;10.10;99.90;;;;;;5101600;28;20478;-77
2023/03/24 04:29:45;;;;;;;5.93;4.47;;;10.10;99.90;;;;;;5104126;28;20457;-79
2023/03/24 04:32:19;;;;;;;5.20;4.70;;;10.20;99.90;;;;;;5100638;28;20498;-77
2023/03/24 04:34:53;;;;;;;7.73;5.00;;;10.20;99.90;;;;;;5102828;28;20959;-76
2023/03/24 04:37:24;;;;;;;6.47;5.77;;;10.30;99.90;;;;;;5100062;28;20466;-77
2023/03/24 04:39:57;;;;;;;5.07;4.50;;;10.30;99.90;;;;;;5101281;28;20473;-76
2023/03/24 04:42:28;;;;;;;5.23;4.80;;;10.20;99.90;;;;;;5104853;28;20450;-79
2023/03/24 04:44:57;;;;;;;4.53;4.13;;;10.20;99.90;;;;;;5099443;28;20911;-77
2023/03/24 04:47:30;;;;;;;6.77;6.10;;;10.10;99.90;;;;;;5103141;28;20455;-77
2023/03/24 04:50:01;;;;;;;7.07;5.50;;;10.10;99.90;;;;;;5103578;28;20470;-79
2023/03/24 04:52:28;;;;;;;13.33;6.00;;;10.10;99.90;;;;;;5095500;28;21095;-77
2023/03/24 04:54:55;;;;;;;7.63;5.43;;;10.10;99.90;;;;;;5097061;28;20445;-77
2023/03/24 04:57:22;;;;;;;4.97;4.47;;;10.10;99.90;;;;;;5102903;28;20469;-80
2023/03/24 04:59:49;;;;;;;5.70;4.87;;;10.20;99.90;;;;;;5105478;28;20477;-76
2023/03/24 05:02:16;;;;;;;5.57;5.07;;;10.10;99.90;;;;;;5098571;28;21008;-77
2023/03/24 05:04:45;;;;;;;6.50;4.93;;;10.00;99.90;;;;;;5100687;28;20454;-77
2023/03/24 05:07:14;;;;;;;5.13;4.63;;;9.90;99.90;;;;;;5100250;28;20543;-77
2023/03/24 05:09:41;;;;;;;6.53;5.93;;;9.80;99.90;;;;;;5103994;28;20443;-76
2023/03/24 05:12:08;;;;;;;6.07;5.20;;;9.80;99.90;;;;;;5100566;28;20455;-77
2023/03/24 05:14:37;;;;;;;5.80;5.23;;;9.80;99.90;;;;;;5099146;28;20512;-77
2023/03/24 05:17:04;;;;;;;6.83;4.90;;;9.80;99.90;;;;;;5094360;28;20471;-76
2023/03/24 05:19:31;;;;;;;6.30;5.67;;;9.70;99.90;;;;;;5097157;28;20455;-77
2023/03/24 05:22:00;;;;;;;6.70;5.13;;;9.80;99.90;;;;;;5101689;28;20459;-77
2023/03/24 05:24:27;;;;;;;7.20;5.63;;;9.80;99.90;;;;;;5100662;28;20676;-80
2023/03/24 05:26:54;;;;;;;7.00;5.97;;;9.80;99.90;;;;;;5099431;28;20549;-78
2023/03/24 05:29:21;;;;;;;6.37;5.87;;;9.70;99.90;;;;;;5102852;28;20459;-77
2023/03/24 05:31:47;;;;;;;6.43;5.63;;;9.70;99.90;;;;;;5099950;28;20458;-76
2023/03/24 05:34:14;;;;;;;6.83;6.20;;;9.60;99.90;;;;;;5098440;28;20507;-77
2023/03/24 05:36:41;;;;;;;6.40;5.70;;;9.60;99.90;;;;;;5103516;28;20442;-76
2023/03/24 05:39:10;;;;;;;6.83;5.90;;;9.50;99.90;;;;;;5098988;28;21169;-77
2023/03/24 05:41:37;;;;;;;8.60;7.90;;;9.50;99.90;;;;;;5098119;28;20459;-77
2023/03/24 05:44:04;;;;;;;15.67;13.50;;;9.50;99.90;;;;;;5097978;28;20482;-78
2023/03/24 05:46:31;;;;;;;9.97;8.97;;;9.50;99.90;;;;;;5097892;28;20551;-76
2023/03/24 05:48:58;;;;;;;11.23;7.60;;;9.60;99.90;;;;;;5101305;28;21094;-77
2023/03/24 05:51:24;;;;;;;7.80;5.97;;;9.60;99.90;;;;;;5106640;28;20458;-77
2023/03/24 05:53:52;;;;;;;7.00;6.30;;;9.50;99.90;;;;;;5103988;28;20523;-77
2023/03/24 05:56:20;;;;;;;7.77;5.63;;;9.60;99.90;;;;;;5098197;28;20450;-77
2023/03/24 05:58:47;;;;;;;6.60;6.10;;;9.60;99.90;;;;;;5101541;28;20454;-78
2023/03/24 06:01:17;;;;;;;21.80;15.33;;;9.60;99.90;;;;;;5096885;28;20462;-80
2023/03/24 06:03:44;;;;;;;8.20;6.70;;;9.70;99.90;;;;;;5106762;28;20989;-78
2023/03/24 06:06:15;;;;;;;7.53;6.83;;;9.70;99.90;;;;;;5105197;28;20486;-77
2023/03/24 06:08:43;;;;;;;9.83;8.20;;;9.60;99.90;;;;;;5104630;28;20564;-78
2023/03/24 06:11:11;;;;;;;6.40;5.80;;;9.60;99.90;;;;;;5100077;28;21205;-77
2023/03/24 06:13:40;;;;;;;8.70;7.57;;;9.70;99.90;;;;;;5095090;28;20466;-77
2023/03/24 06:16:08;;;;;;;9.87;7.20;;;9.70;99.90;;;;;;5098025;28;21251;-77
2023/03/24 06:18:35;;;;;;;9.20;8.40;;;9.70;99.90;;;;;;5099726;28;20463;-77
2023/03/24 06:21:02;;;;;;;8.03;7.27;;;9.70;99.90;;;;;;5102882;28;20459;-77
2023/03/24 06:23:29;;;;;;;8.07;7.40;;;9.80;99.90;;;;;;5109642;28;21015;-78
2023/03/24 06:26:00;;;;;;;14.23;7.67;;;9.90;99.90;;;;;;5105412;28;20490;-76
2023/03/24 06:28:29;;;;;;;11.30;7.33;;;10.00;99.90;;;;;;5101566;28;20491;-77
2023/03/24 06:30:58;;;;;;;13.17;12.13;;;10.00;99.90;;;;;;5103898;28;20547;-77
2023/03/24 06:33:25;;;;;;;10.27;9.13;;;10.00;99.90;;;;;;5108316;28;20456;-77
2023/03/24 06:35:52;;;;;;;12.60;11.50;;;10.10;99.90;;;;;;5102512;28;20455;-77
2023/03/24 06:38:21;;;;;;;8.73;7.83;;;10.10;99.90;;;;;;5097421;28;20517;-77
2023/03/24 06:40:48;;;;;;;9.10;8.20;;;10.20;99.90;;;;;;5105882;28;20454;-77
2023/03/24 06:43:15;;;;;;;7.87;7.27;;;10.30;99.90;;;;;;5107279;28;20508;-79
2023/03/24 06:45:43;;;;;;;9.73;8.00;;;10.40;99.90;;;;;;5107622;28;21106;-77
2023/03/24 06:48:12;;;;;;;9.20;8.40;;;10.50;99.90;;;;;;5101458;28;20458;-77
2023/03/24 06:50:38;;;;;;;11.13;9.67;;;10.60;99.90;;;;;;5106211;28;20447;-76
2023/03/24 06:53:05;;;;;;;14.80;9.00;;;10.60;99.90;;;;;;5107218;28;20446;-76
2023/03/24 06:55:32;;;;;;;12.80;8.77;;;10.70;99.90;;;;;;5107582;27;21066;-76
2023/03/24 06:58:00;;;;;;;7.87;7.07;;;10.90;99.90;;;;;;5109162;28;20472;-76
2023/03/24 07:00:27;;;;;;;7.77;7.07;;;11.10;99.90;;;;;;5107719;28;20458;-77
2023/03/24 07:02:55;;;;;;;8.13;7.33;;;11.30;99.90;;;;;;5102774;27;20545;-77
2023/03/24 07:05:23;;;;;;;8.00;7.00;;;11.40;99.90;;;;;;5109012;28;20466;-77
2023/03/24 07:07:50;;;;;;;9.27;7.97;;;11.60;99.90;;;;;;5104758;28;21066;-88
2023/03/24 07:10:18;;;;;;;7.47;6.73;;;11.80;99.90;;;;;;5104019;28;20454;-86
2023/03/24 07:12:46;;;;;;;7.00;6.30;;;11.90;99.90;;;;;;5109350;28;20529;-83
2023/03/24 07:15:13;;;;;;;8.17;7.10;;;12.00;99.90;;;;;;5104882;28;20846;-79
2023/03/24 07:17:41;;;;;;;6.23;5.77;;;12.20;99.90;;;;;;5104873;28;20511;-77
2023/03/24 07:20:09;;;;;;;7.60;7.00;;;12.40;99.90;;;;;;5109462;28;20446;-76
2023/03/24 07:22:37;;;;;;;8.30;6.90;;;12.50;99.90;;;;;;5095711;28;20994;-78
2023/03/24 07:25:06;;;;;;;8.10;7.40;;;12.60;99.90;;;;;;5104501;28;20450;-79
2023/03/24 07:27:35;;;;;;;7.40;6.80;;;12.70;99.90;;;;;;5097888;28;20494;-76
2023/03/24 07:30:02;;;;;;;10.17;8.20;;;12.90;99.90;;;;;;5102284;28;21023;-85
2023/03/24 07:32:33;;;;;;;7.93;7.23;;;13.00;99.90;;;;;;5105190;28;21083;-86
2023/03/24 07:35:01;;;;;;;6.27;5.83;;;13.00;99.90;;;;;;5105998;28;20446;-88
2023/03/24 07:37:28;;;;;;;8.33;7.03;;;13.10;99.90;;;;;;5109280;28;20454;-80
2023/03/24 07:39:56;;;;;;;6.90;5.53;;;13.00;99.90;;;;;;5109701;28;20508;-80
2023/03/24 07:42:23;;;;;;;7.97;5.37;;;13.20;99.90;;;;;;5108158;28;20442;-80
2023/03/24 07:44:50;;;;;;;9.67;5.00;;;13.20;99.90;;;;;;5105477;28;20495;-76
2023/03/24 07:47:18;;;;;;;5.73;5.17;;;13.20;99.90;;;;;;5105886;28;21847;-76
2023/03/24 07:49:45;;;;;;;9.43;5.70;;;13.30;99.90;;;;;;5107983;28;20440;-76
2023/03/24 07:52:12;;;;;;;6.20;5.60;;;13.30;99.90;;;;;;5107722;28;20938;-79
2023/03/24 07:54:39;;;;;;;4.97;4.47;;;13.30;99.90;;;;;;5108504;28;20500;-76
2023/03/24 07:57:07;;;;;;;4.07;3.77;;;13.40;99.90;;;;;;5106868;28;21138;-79
2023/03/24 07:59:35;;;;;;;5.70;5.30;;;13.30;99.90;;;;;;5106355;28;20942;-79
2023/03/24 08:02:02;;;;;;;5.50;4.10;;;13.30;99.90;;;;;;5100559;28;20696;-79
2023/03/24 08:04:28;;;;;;;5.13;4.53;;;13.30;99.90;;;;;;5106068;28;21011;-80
2023/03/24 08:06:57;;;;;;;4.10;3.80;;;13.50;99.90;;;;;;5105813;28;20478;-79
2023/03/24 08:09:24;;;;;;;7.37;3.97;;;13.80;99.90;;;;;;5109054;28;20500;-78
2023/03/24 08:11:51;;;;;;;4.60;3.70;;;14.00;99.90;;;;;;5108551;28;20439;-76
2023/03/24 08:14:20;;;;;;;4.70;4.30;;;14.10;99.90;;;;;;5106137;28;20519;-77
2023/03/24 08:16:47;;;;;;;3.77;3.47;;;14.30;99.90;;;;;;5098917;28;20455;-78
2023/03/24 08:19:14;;;;;;;4.17;3.77;;;14.40;99.90;;;;;;5103292;28;20598;-79
2023/03/24 08:21:41;;;;;;;3.97;3.63;;;14.60;99.90;;;;;;5099872;28;20529;-77
2023/03/24 08:24:08;;;;;;;4.97;4.57;;;14.70;99.90;;;;;;5093065;28;20512;-76
2023/03/24 08:26:35;;;;;;;4.33;3.67;;;14.70;99.90;;;;;;5105081;28;20548;-76
2023/03/24 08:29:10;;;;;;;4.23;3.93;;;14.80;99.90;;;;;;5101686;28;20439;-76
2023/03/24 08:31:39;;;;;;;3.63;3.33;;;15.10;99.90;;;;;;5099300;28;20458;-77
2023/03/24 08:34:10;;;;;;;4.17;3.77;;;15.20;99.90;;;;;;5102724;28;20455;-79
2023/03/24 08:36:37;;;;;;;5.43;3.87;;;15.10;99.90;;;;;;5102103;28;21013;-76
2023/03/24 08:39:08;;;;;;;4.53;3.97;;;15.30;99.90;;;;;;5104360;28;21008;-78
2023/03/24 08:41:36;;;;;;;4.90;4.50;;;15.10;99.90;;;;;;5095425;28;20446;-77
2023/03/24 08:44:06;;;;;;;3.43;3.13;;;15.10;99.90;;;;;;5106552;28;20450;-76
2023/03/24 08:46:33;;;;;;;5.07;4.30;;;15.20;99.90;;;;;;5105886;28;20512;-76
2023/03/24 08:49:02;;;;;;;4.60;4.07;;;15.40;99.90;;;;;;5103878;27;20577;-75
2023/03/24 08:51:30;;;;;;;4.83;4.43;;;15.10;99.90;;;;;;5104634;28;20578;-78
2023/03/24 08:53:57;;;;;;;5.10;3.90;;;15.00;99.90;;;;;;5107068;28;20446;-76
2023/03/24 08:56:24;;;;;;;3.90;3.60;;;14.90;99.90;;;;;;5103397;28;20462;-75
2023/03/24 08:58:52;;;;;;;7.03;3.57;;;14.90;99.90;;;;;;5091843;28;20454;-79
2023/03/24 09:01:19;;;;;;;4.53;3.70;;;14.80;99.90;;;;;;5106573;28;20486;-76
2023/03/24 09:03:46;;;;;;;7.70;3.40;;;14.90;99.90;;;;;;5100168;28;20454;-77
2023/03/24 09:06:16;;;;;;;4.33;4.03;;;15.00;99.90;;;;;;5104648;28;20469;-76
2023/03/24 09:08:43;;;;;;;3.90;3.60;;;15.00;99.90;;;;;;5099149;28;20475;-76
2023/03/24 09:11:15;;;;;;;6.97;6.10;;;15.00;99.90;;;;;;5094205;28;20460;-79
2023/03/24 09:13:43;;;;;;;10.53;5.13;;;15.10;99.90;;;;;;5101636;28;20458;-79
2023/03/24 09:16:10;;;;;;;5.83;5.23;;;15.20;99.90;;;;;;5103962;28;20931;-77
2023/03/24 09:18:37;;;;;;;5.50;5.00;;;15.40;99.90;;;;;;5106367;28;20458;-79
2023/03/24 09:21:05;;;;;;;10.33;6.27;;;15.60;99.90;;;;;;5098678;28;20473;-79
2023/03/24 09:23:33;;;;;;;8.90;6.63;;;15.80;99.90;;;;;;5103393;28;20881;-76
2023/03/24 09:26:01;;;;;;;7.37;5.30;;;15.80;99.90;;;;;;5107350;28;20474;-78
2023/03/24 09:28:29;;;;;;;5.37;4.97;;;15.60;99.90;;;;;;5103188;28;20488;-79
2023/03/24 09:31:00;;;;;;;12.40;6.93;;;15.50;99.90;;;;;;5101446;28;20462;-76
2023/03/24 09:33:28;;;;;;;6.27;5.67;;;15.80;99.90;;;;;;5096614;28;20536;-76
2023/03/24 09:35:56;;;;;;;9.90;6.43;;;16.10;99.90;;;;;;5102650;28;20939;-76
2023/03/24 09:38:23;;;;;;;6.43;5.93;;;16.20;99.90;;;;;;5105286;28;20454;-76
2023/03/24 09:40:56;;;;;;;13.10;7.00;;;16.40;99.90;;;;;;5107152;28;20462;-76
2023/03/24 09:43:31;;;;;;;8.10;7.07;;;16.80;99.90;;;;;;5103047;28;20466;-76
2023/03/24 09:46:01;;;;;;;6.57;6.07;;;16.90;99.90;;;;;;5104656;28;20453;-78
2023/03/24 09:48:35;;;;;;;5.97;5.47;;;16.70;99.90;;;;;;5104454;28;20578;-76
2023/03/24 09:51:07;;;;;;;6.70;6.00;;;16.70;99.90;;;;;;5097777;28;20451;-77
2023/03/24 09:53:43;;;;;;;7.80;7.00;;;16.90;99.90;;;;;;5096736;28;20906;-79
2023/03/24 09:56:16;;;;;;;8.00;7.30;;;17.00;99.90;;;;;;5100306;28;20458;-76
2023/03/24 09:58:45;;;;;;;6.97;5.47;;;17.00;99.90;;;;;;5102052;28;20511;-79
2023/03/24 10:01:14;;;;;;;8.73;6.77;;;17.10;99.90;;;;;;5097410;28;20517;-76
2023/03/24 10:03:42;;;;;;;7.43;6.73;;;17.10;99.90;;;;;;5096866;28;20470;-76
2023/03/24 10:06:12;;;;;;;7.47;6.30;;;17.30;99.90;;;;;;5096846;28;20460;-77
2023/03/24 10:08:43;;;;;;;7.17;6.50;;;17.50;99.90;;;;;;5103576;28;20488;-75
2023/03/24 10:11:20;;;;;;;6.60;6.10;;;17.60;99.90;;;;;;5106563;28;20450;-76
2023/03/24 10:13:58;;;;;;;7.53;6.90;;;17.50;99.90;;;;;;5100113;28;20546;-77
2023/03/24 10:16:33;;;;;;;8.37;7.60;;;17.40;99.80;;;;;;5103095;28;20459;-76
2023/03/24 10:19:10;;;;;;;8.00;7.40;;;17.80;99.80;;;;;;5103442;28;20446;-78
2023/03/24 10:21:40;;;;;;;7.83;7.10;;;17.70;99.80;;;;;;5099422;28;20478;-78
2023/03/24 10:24:17;;;;;;;7.23;6.53;;;17.50;99.90;;;;;;5102184;28;20450;-77
2023/03/24 10:26:53;;;;;;;7.37;6.67;;;17.50;99.90;;;;;;5098124;28;20526;-78
2023/03/24 10:29:27;;;;;;;8.57;7.80;;;17.50;99.90;;;;;;5103215;28;20542;-79
2023/03/24 10:31:59;;;;;;;7.60;6.90;;;17.40;99.90;;;;;;5103828;28;20528;-78
2023/03/24 10:34:29;;;;;;;7.90;7.30;;;17.50;99.70;;;;;;5105140;28;20447;-79
2023/03/24 10:36:58;;;;;;;6.53;5.67;;;17.70;99.60;;;;;;5104537;28;20933;-76
2023/03/24 10:39:26;;;;;;;6.67;6.07;;;17.90;98.10;;;;;;5104065;28;20513;-78
2023/03/24 10:41:55;;;;;;;8.30;7.53;;;18.20;98.50;;;;;;5107781;28;20460;-78
2023/03/24 10:44:22;;;;;;;8.23;7.10;;;18.40;97.80;;;;;;5101806;28;20498;-77
2023/03/24 10:46:53;;;;;;;8.67;7.10;;;18.50;98.20;;;;;;5096214;28;20477;-77
2023/03/24 10:49:21;;;;;;;13.87;5.87;;;18.50;97.20;;;;;;5101766;28;20445;-77
2023/03/24 10:51:50;;;;;;;10.17;6.47;;;18.60;97.10;;;;;;5103133;28;20537;-76
2023/03/24 10:54:19;;;;;;;7.43;6.83;;;18.50;97.10;;;;;;5103755;28;20455;-78
2023/03/24 10:56:48;;;;;;;7.60;6.90;;;18.50;98.60;;;;;;5100610;28;20978;-79
2023/03/24 10:59:27;;;;;;;8.07;7.37;;;18.70;97.50;;;;;;5102839;28;20480;-78
2023/03/24 11:02:11;;;;;;;7.17;6.37;;;18.80;96.10;;;;;;5100467;28;20457;-79
2023/03/24 11:04:40;;;;;;;7.77;7.13;;;18.80;95.30;;;;;;5104789;28;20463;-78
2023/03/24 11:07:16;;;;;;;7.80;7.13;;;18.90;97.20;;;;;;5100717;28;20489;-78
2023/03/24 11:09:45;;;;;;;16.20;9.40;;;18.70;95.80;;;;;;5098507;28;20457;-78
2023/03/24 11:12:23;;;;;;;8.10;7.33;;;18.80;96.50;;;;;;5101405;28;21003;-76
2023/03/24 11:14:56;;;;;;;7.60;7.00;;;18.90;95.80;;;;;;5108728;28;20543;-76
2023/03/24 11:17:24;;;;;;;7.60;6.90;;;18.90;95.90;;;;;;5099142;28;20462;-76
2023/03/24 11:19:53;;;;;;;7.00;6.40;;;18.90;94.90;;;;;;5115840;27;20449;-79
2023/03/24 11:22:20;;;;;;;10.50;7.07;;;18.80;95.80;;;;;;5105085;28;21011;-78
2023/03/24 11:24:52;;;;;;;10.07;6.30;;;18.50;95.90;;;;;;5092037;28;20466;-77
2023/03/24 11:27:20;;;;;;;8.27;5.80;;;18.20;95.40;;;;;;5100895;28;20487;-78
2023/03/24 11:29:53;;;;;;;6.83;6.33;;;18.20;95.40;;;;;;5101719;28;20465;-78
2023/03/24 11:32:25;;;;;;;8.00;7.23;;;18.10;95.80;;;;;;5102104;28;20820;-77
2023/03/24 11:35:04;;;;;;;8.00;6.70;;;18.50;97.30;;;;;;5105326;28;20453;-79
2023/03/24 11:37:33;;;;;;;7.80;7.30;;;18.60;96.10;;;;;;5102467;28;20867;-78
2023/03/24 11:40:19;;;;;;;10.37;9.47;;;18.70;96.50;;;;;;5108393;28;20459;-77
2023/03/24 11:42:49;;;;;;;7.90;7.20;;;18.80;95.00;;;;;;5103930;28;20445;-76
2023/03/24 11:45:33;;;;;;;7.47;6.77;;;18.50;96.20;;;;;;5108563;28;21000;-78
2023/03/24 11:48:03;;;;;;;6.60;4.90;;;18.60;95.70;;;;;;5106720;28;20512;-79
2023/03/24 11:50:33;;;;;;;6.03;5.50;;;18.30;94.80;;;;;;5103984;28;20454;-76
2023/03/24 11:53:07;;;;;;;4.73;4.40;;;18.10;94.90;;;;;;5103322;28;20535;-77
2023/03/24 11:55:43;;;;;;;4.73;4.33;;;18.00;95.60;;;;;;5107232;28;20971;-78
2023/03/24 11:58:17;;;;;;;2.13;1.60;;;17.90;98.10;;;;;;5099988;28;21010;-79
2023/03/24 12:00:51;;;;;;;2.47;2.27;;;17.50;96.00;;;;;;5100718;28;20516;-77
2023/03/24 12:03:44;;;;;;;3.50;3.30;;;17.20;96.80;;;;;;5095575;28;20919;-77
2023/03/24 12:06:33;;;;;;;3.03;1.60;;;17.10;98.10;;;;;;5100262;28;20446;-77
2023/03/24 12:09:13;;;;;;;1.80;1.20;;;17.00;98.50;;;;;;5103949;28;20486;-79
2023/03/24 12:11:58;;;;;;;1.17;1.00;;;16.90;98.70;;;;;;5104064;28;20989;-79
2023/03/24 12:14:39;;;;;;;1.87;1.10;;;16.80;97.90;;;;;;5106820;28;20509;-76
2023/03/24 12:17:12;;;;;;;1.13;1.00;;;16.70;98.40;;;;;;5113346;27;20446;-77
2023/03/24 12:19:59;;;;;;;4.93;1.80;;;16.60;98.30;;;;;;5098973;28;20487;-77
2023/03/24 12:22:38;;;;;;;1.23;0.83;;;16.50;98.10;;;;;;5103868;28;20523;-80
2023/03/24 12:25:30;;;;;;;4.73;2.00;;;16.30;98.50;;;;;;5097466;28;20501;-78
2023/03/24 12:28:11;;;;;;;4.23;2.27;;;16.30;99.10;;;;;;5086026;28;20536;-77
2023/03/24 12:30:47;;;;;;;2.57;1.30;;;16.20;99.50;;;;;;5104365;28;20955;-78
2023/03/24 12:33:30;;;;;;;2.30;1.20;;;16.20;99.90;;;;;;5101211;28;20443;-78
2023/03/24 12:36:13;;;;;;;1.67;1.50;;;16.10;99.90;;;;;;5107904;28;20446;-78
2023/03/24 12:38:55;;;;;;;1.70;1.40;;;16.00;99.90;;;;;;5106961;28;20970;-77
2023/03/24 12:41:52;;;;;;;4.27;1.07;;;15.90;99.90;;;;;;5095488;28;20450;-78
2023/03/24 12:44:44;;;;;;;1.50;1.40;;;15.70;99.90;;;;;;5102083;28;20818;-76
2023/03/24 12:47:26;;;;;;;2.07;1.87;;;15.70;99.90;;;;;;5095802;28;20462;-76
2023/03/24 12:50:12;;;;;;;1.47;1.37;;;15.60;99.90;;;;;;5100913;28;20491;-79
2023/03/24 12:52:55;;;;;;;1.73;1.40;;;15.60;99.90;;;;;;5098606;28;20458;-78
2023/03/24 12:55:30;;;;;;;1.33;1.23;;;15.50;99.90;;;;;;5102860;28;20462;-80
2023/03/24 12:58:04;;;;;;;1.73;1.10;;;15.40;99.90;;;;;;5100558;28;20462;-79
2023/03/24 13:00:35;;;;;;;1.27;1.17;;;15.30;99.90;;;;;;5101436;28;20946;-77
2023/03/24 13:03:07;;;;;;;1.30;0.80;;;15.20;99.90;;;;;;5103204;28;21002;-79
2023/03/24 13:05:43;;;;;;;1.77;0.80;;;15.00;99.90;;;;;;5102275;28;20458;-78
2023/03/24 13:08:16;;;;;;;1.27;1.10;;;14.90;99.90;;;;;;5098077;28;20506;-81
2023/03/24 13:10:46;;;;;;;0.83;0.83;;;14.80;99.90;;;;;;5102014;28;20961;-79